Latest Weather Observations for Mangalore

IDV60801

Issued at 8:35 pm EST Tuesday 29 July 2014 (issued every 30 minutes, with the page automatically refreshed every 10 minutes)

About weather observations | Map of weather stations | Latest weather observations for VIC | Other Formats
Station Details ID: 088109 Name: MANGALORE AIRPORT Lat: -36.89 Lon: 145.19 Height: 140.8 m
Data from the previous 72 hours. | See also: Recent months at Mangalore
Date/Time
EST
Temp
°C
App
Temp
°C
Dew
Point
Rel
Hum
%
Delta-T
°C
Wind Press
QNH
hPa
Press
MSL
hPa
Rain
since 9 am
mm
Dir
 
Spd
km/h
Gust
km/h
Spd
kts
Gust
kts
29/08:30pm 12.8 8.8 10.5 86 1.2 NNW 22 32 12 17 1014.0 - 0.0
29/08:00pm 12.9 8.9 10.6 86 1.2 NNW 22 28 12 15 1014.0 - 0.0
29/07:30pm 12.7 9.2 10.8 88 1.0 N 20 28 11 15 1013.7 - 0.0
29/07:00pm 12.8 9.4 10.7 87 1.1 N 19 28 10 15 1013.6 - 0.0
29/06:30pm 12.5 9.2 10.9 90 0.8 N 19 24 10 13 1013.5 - 0.0
29/06:29pm 12.5 9.2 10.9 90 0.8 N 19 24 10 13 1013.5 - 0.0
29/06:08pm 12.7 9.2 10.1 84 1.3 N 19 28 10 15 1013.4 - 0.0
29/06:00pm 13.3 10.4 9.7 79 1.9 N 15 20 8 11 1013.2 1013.5 0.0
29/05:30pm 13.3 10.0 9.4 77 2.0 N 17 20 9 11 1012.9 - 0.0
29/05:00pm 13.3 9.4 9.4 77 2.0 N 20 32 11 17 1012.4 - 0.0
29/04:30pm 13.1 8.8 9.2 77 2.0 N 22 28 12 15 1012.2 - 0.0
29/04:00pm 13.9 9.5 8.9 72 2.5 N 22 30 12 16 1012.3 - 0.0
29/03:30pm 13.7 9.4 9.4 75 2.2 N 22 32 12 17 1012.3 - 0.0
29/03:00pm 12.9 8.9 9.2 78 1.9 N 20 32 11 17 1012.5 1012.8 0.0
29/02:32pm 12.7 8.5 9.7 82 1.5 N 22 33 12 18 1012.4 - 0.0
29/02:30pm 12.6 8.0 9.8 83 1.4 N 24 33 13 18 1012.4 - 0.0
29/02:18pm 12.4 8.7 9.4 82 1.5 N 19 30 10 16 1012.4 - 0.0
29/02:00pm 12.9 7.6 8.6 75 2.2 N 26 41 14 22 1012.1 - 0.0
29/01:30pm 13.1 8.1 8.2 72 2.4 N 24 32 13 17 1012.1 - 0.0
29/01:00pm 12.9 8.3 8.2 73 2.3 N 22 26 12 14 1012.8 - 0.0
29/12:30pm 13.2 7.8 7.9 70 2.6 N 26 33 14 18 1013.0 - 0.0
29/12:00pm 11.8 7.3 7.1 73 2.3 N 20 30 11 16 1014.2 1014.6 0.0
29/11:30am 11.6 7.3 6.9 73 2.3 N 19 24 10 13 1014.7 - 0.0
29/11:00am 11.8 6.8 6.5 70 2.5 N 22 30 12 16 1014.5 - 0.0
29/10:30am 11.3 6.4 7.0 75 2.1 N 22 35 12 19 1013.8 - 0.0
29/10:00am 10.5 5.6 6.8 78 1.8 N 22 33 12 18 1014.6 - 0.0
29/09:30am 9.2 4.8 6.5 83 1.3 NNE 19 22 10 12 1015.2 - 0.0
29/09:00am 8.9 4.2 6.2 83 1.2 NNE 20 26 11 14 1015.3 1015.7 0.2
29/08:30am 8.2 3.7 6.2 87 0.9 NE 19 24 10 13 1015.1 - 0.2
29/08:00am 7.6 2.4 5.6 87 0.9 NNE 22 32 12 17 1014.6 - 0.2
29/07:30am 7.2 2.6 5.7 90 0.7 NE 19 26 10 14 1014.0 - 0.2
29/07:00am 6.6 1.9 5.1 90 0.7 NNE 19 24 10 13 1014.3 - 0.2
29/06:30am 7.2 2.3 5.3 88 0.8 NNE 20 26 11 14 1014.1 - 0.2
29/06:00am 7.4 2.2 5.5 88 0.9 NNE 22 28 12 15 1013.7 1014.0 0.2
29/05:30am 7.6 2.8 5.7 88 0.9 NNE 20 24 11 13 1013.8 - 0.2
29/05:00am 7.5 3.3 5.6 88 0.9 NNE 17 20 9 11 1013.7 - 0.2
29/04:30am 7.1 2.5 5.4 89 0.8 NE 19 22 10 12 1013.8 - 0.2
29/04:00am 6.4 2.7 4.7 89 0.7 NE 13 19 7 10 1014.0 - 0.2
29/03:30am 6.9 2.0 5.1 88 0.8 NE 20 24 11 13 1014.0 - 0.2
29/03:00am 7.1 2.4 5.1 87 0.9 NE 19 22 10 12 1014.5 1014.9 0.2
29/02:30am 7.9 4.1 5.9 87 0.9 NE 15 20 8 11 1014.7 - 0.2
29/02:00am 6.8 2.8 4.8 87 0.9 NNE 15 17 8 9 1014.9 - 0.2
29/01:30am 6.5 2.8 4.3 86 1.0 N 13 19 7 10 1014.6 - 0.2
29/01:00am 6.8 3.9 4.6 86 1.0 NE 9 13 5 7 1015.0 - 0.2
29/12:30am 7.1 3.5 4.8 85 1.0 NNE 13 15 7 8 1015.4 - 0.2
29/12:00am 8.6 5.0 6.7 88 0.9 NNE 15 17 8 9 1015.5 1015.9 0.2
 
Date/Time
EST
Temp
°C
App
Temp
°C
Dew
Point
Rel
Hum
%
Delta-T
°C
Wind Press
QNH
hPa
Press
MSL
hPa
Rain
since 9 am
mm
Dir
 
Spd
km/h
Gust
km/h
Spd
kts
Gust
kts
28/11:30pm 6.0 2.7 4.5 90 0.7 NNE 11 13 6 7 1015.8 - 0.2
28/11:00pm 6.3 2.8 3.6 83 1.1 NNE 11 13 6 7 1015.7 - 0.2
28/10:30pm 6.9 3.7 5.1 88 0.8 NE 11 15 6 8 1015.8 - 0.2
28/10:00pm 6.5 3.0 5.3 92 0.5 NE 13 15 7 8 1015.8 - 0.2
28/09:30pm 6.5 2.9 5.1 91 0.6 NE 13 17 7 9 1016.0 - 0.2
28/09:00pm 7.2 3.7 5.5 89 0.8 NE 13 15 7 8 1016.1 1016.5 0.2
28/08:30pm 8.7 5.6 7.2 90 0.7 NE 13 17 7 9 1015.9 - 0.2
28/08:00pm 7.7 4.4 6.5 92 0.6 NE 13 17 7 9 1015.5 - 0.2
28/07:30pm 8.2 5.3 6.7 90 0.7 NE 11 13 6 7 1015.5 - 0.2
28/07:00pm 9.1 5.5 6.7 85 1.1 NE 15 17 8 9 1015.5 - 0.2
28/06:30pm 9.9 6.0 7.2 83 1.3 NE 17 20 9 11 1015.3 - 0.2
28/06:00pm 10.4 7.7 7.3 81 1.5 NNE 11 15 6 8 1015.3 1015.7 0.2
28/05:30pm 11.7 8.3 7.6 76 2.0 NNE 15 19 8 10 1015.0 - 0.2
28/05:00pm 12.8 8.6 7.5 70 2.6 N 19 24 10 13 1015.0 - 0.2
28/04:30pm 13.6 9.7 8.7 72 2.5 NNE 19 26 10 14 1015.0 - 0.2
28/04:00pm 13.7 8.8 8.3 70 2.7 NNE 24 35 13 19 1014.9 - 0.2
28/03:30pm 13.9 9.3 8.1 68 2.9 NNE 22 30 12 16 1015.1 - 0.2
28/03:00pm 13.9 9.7 8.1 68 2.9 N 20 28 11 15 1015.6 1016.0 0.2
28/02:30pm 13.8 9.1 7.8 67 3.0 N 22 32 12 17 1015.8 - 0.2
28/02:00pm 13.6 8.1 7.4 66 3.1 N 26 32 14 17 1015.9 - 0.2
28/01:30pm 13.4 8.6 7.4 67 3.0 NNE 22 30 12 16 1016.2 - 0.0
28/01:00pm 12.9 7.6 6.7 66 3.0 NNE 24 30 13 16 1016.7 - 0.0
28/12:30pm 12.3 7.0 6.8 69 2.7 NNE 24 32 13 17 1017.2 - 0.0
28/12:00pm 12.1 6.4 6.6 69 2.6 NNE 26 35 14 19 1018.0 1018.4 0.0
28/11:30am 11.2 5.4 6.3 72 2.3 NNE 26 32 14 17 1018.4 - 0.0
28/11:00am 11.2 5.5 6.9 75 2.1 NE 26 32 14 17 1018.9 - 0.0
28/10:30am 10.7 5.3 6.5 75 2.0 NNE 24 32 13 17 1019.3 - 0.0
28/10:00am 10.0 4.2 6.2 77 1.8 NE 26 33 14 18 1019.4 - 0.0
28/09:30am 9.3 4.2 5.9 79 1.6 NE 22 32 12 17 1019.6 - 0.0
28/09:00am 8.5 3.9 5.8 83 1.2 NE 19 28 10 15 1019.7 1020.0 0.0
28/08:30am 7.4 2.6 5.5 88 0.9 NE 20 28 11 15 1019.6 - 0.0
28/08:00am 7.3 3.2 6.1 92 0.5 NE 17 22 9 12 1019.7 - 0.0
28/07:30am 6.3 2.0 5.1 92 0.5 NNE 17 20 9 11 1019.7 - 0.0
28/07:00am 6.6 2.0 5.4 92 0.5 NNE 19 22 10 12 1019.5 - 0.0
28/06:30am 6.6 2.4 5.6 93 0.4 NE 17 20 9 11 1019.3 - 0.0
28/06:00am 6.7 2.5 5.8 94 0.4 NNE 17 20 9 11 1019.3 1019.6 0.0
28/05:30am 6.6 2.8 6.0 96 0.3 NE 15 20 8 11 1019.4 - 0.0
28/05:00am 6.5 2.8 6.1 97 0.2 NE 15 19 8 10 1019.6 - 0.0
28/04:30am 6.7 3.0 6.1 96 0.3 NE 15 19 8 10 1019.8 - 0.0
28/04:00am 6.7 2.9 6.0 95 0.3 NE 15 19 8 10 1019.9 - 0.0
28/03:30am 7.1 3.0 6.4 95 0.3 NE 17 20 9 11 1019.9 - 0.0
28/03:00am 7.7 3.7 6.8 94 0.4 NNE 17 20 9 11 1020.2 1020.6 0.0
28/02:30am 7.9 4.1 7.6 98 0.1 NE 17 22 9 12 1020.7 - 0.0
28/02:00am 7.3 3.0 7.2 99 0.0 NE 19 22 10 12 1020.7 - 0.0
28/01:30am 7.1 3.2 7.0 99 0.0 NE 17 20 9 11 1020.8 - 0.0
28/01:00am 7.4 3.5 7.3 99 0.0 NNE 17 20 9 11 1020.8 - 0.0
28/12:30am 7.5 3.3 7.4 99 0.0 NNE 19 24 10 13 1021.2 - 0.0
28/12:00am 7.4 3.5 7.3 99 0.0 NE 17 20 9 11 1021.5 1021.9 0.0
 
Date/Time
EST
Temp
°C
App
Temp
°C
Dew
Point
Rel
Hum
%
Delta-T
°C
Wind Press
QNH
hPa
Press
MSL
hPa
Rain
since 9 am
mm
Dir
 
Spd
km/h
Gust
km/h
Spd
kts
Gust
kts
27/11:30pm 7.9 3.8 7.8 99 0.0 NNE 19 24 10 13 1021.8 - 0.0
27/11:00pm 7.9 3.8 7.8 99 0.0 NNE 19 20 10 11 1022.1 - 0.0
27/10:30pm 8.3 4.7 8.2 99 0.0 NNE 17 20 9 11 1022.4 - 0.0
27/10:00pm 8.0 4.7 7.9 99 0.0 NNE 15 19 8 10 1022.5 - 0.0
27/09:30pm 8.3 5.0 8.2 99 0.0 NNE 15 19 8 10 1022.6 - 0.0
27/09:00pm 8.6 5.4 8.3 98 0.1 NNE 15 19 8 10 1022.7 1023.1 0.0
27/08:30pm 9.1 5.6 8.6 97 0.2 NNE 17 20 9 11 1022.6 - 0.0
27/08:00pm 9.7 5.7 9.1 96 0.3 NE 20 24 11 13 1022.3 - 0.0
27/07:30pm 10.2 6.5 9.4 95 0.4 NNE 19 26 10 14 1022.9 - 0.0
27/07:00pm 10.7 6.9 9.8 94 0.5 NE 20 26 11 14 1022.5 - 0.0
27/06:30pm 10.9 7.7 9.8 93 0.6 NE 17 22 9 12 1022.9 - 0.0
27/06:00pm 11.0 8.2 9.9 93 0.6 NE 15 17 8 9 1022.8 1023.2 0.0
27/05:30pm 11.3 8.9 9.9 91 0.7 NE 13 15 7 8 1022.6 - 0.0
27/05:00pm 11.9 9.5 10.0 88 1.0 NE 13 15 7 8 1022.5 - 0.0
27/04:30pm 12.2 9.7 9.6 84 1.3 NNE 13 17 7 9 1022.4 - 0.0
27/04:00pm 12.9 10.2 8.8 76 2.1 N 13 20 7 11 1022.3 - 0.0
27/03:30pm 13.0 10.2 10.0 82 1.6 NNE 15 24 8 13 1022.3 - 0.0
27/03:00pm 13.5 10.0 8.8 73 2.4 N 17 24 9 13 1022.4 1022.8 0.0
27/02:30pm 12.9 8.7 9.7 81 1.6 NNE 22 32 12 17 1022.3 - 0.0
27/02:00pm 12.9 9.6 9.4 79 1.8 N 17 24 9 13 1023.0 - 0.0
27/01:30pm 13.1 9.9 9.9 81 1.7 NNE 17 20 9 11 1023.4 - 0.0
27/01:00pm 13.0 9.7 9.6 80 1.7 NNE 17 22 9 12 1024.0 - 0.0
27/12:30pm 12.3 9.4 9.5 83 1.4 NNE 15 19 8 10 1024.3 - 0.0
27/12:00pm 11.7 8.8 9.6 87 1.1 NNE 15 19 8 10 1025.1 1025.5 0.0
27/11:30am 11.3 9.6 11.1 99 0.1 NNE 11 17 6 9 1025.6 - 0.0
27/11:08am 10.1 8.1 10.1 100 0.0 NNE 11 13 6 7 1026.1 - 0.0
27/11:04am 10.0 8.0 10.0 100 0.0 NNE 11 13 6 7 1026.0 - 0.0
27/11:00am 9.8 7.7 9.8 100 0.0 NNE 11 13 6 7 1026.1 - 0.0
27/10:30am 7.4 5.1 7.4 100 0.0 NNE 9 11 5 6 1026.6 - 0.0
27/10:00am 6.7 4.6 6.6 99 0.0 W 7 11 4 6 1026.7 - 0.0
27/09:30am 5.3 4.2 5.2 99 0.0 CALM 0 6 0 3 1026.7 - 0.0
27/09:11am 5.3 4.2 5.2 99 0.0 CALM 0 0 0 0 1026.6 - 0.0
27/09:10am 4.9 3.7 4.8 99 0.0 CALM 0 0 0 0 1026.6 - 0.0
27/09:00am 4.3 3.0 4.2 99 0.0 CALM 0 0 0 0 1026.5 1026.9 0.4
27/08:30am 2.9 1.4 2.8 99 0.0 CALM 0 6 0 3 1026.5 - 0.4
27/08:00am 1.7 -1.2 1.6 99 0.0 W 6 7 3 4 1026.3 - 0.4
27/07:30am 1.4 -0.4 1.3 99 0.0 CALM 0 0 0 0 1026.0 - 0.4
27/07:05am 1.4 -0.4 1.3 99 0.0 CALM 0 0 0 0 1025.9 - 0.4
27/07:00am 1.6 -0.2 1.5 99 0.0 CALM 0 0 0 0 1025.8 - 0.4
27/06:59am 1.7 0.0 1.6 99 0.0 CALM 0 0 0 0 1025.8 - 0.4
27/06:30am 2.2 -0.8 2.1 99 0.0 W 7 11 4 6 1025.5 - 0.4
27/06:00am 2.4 0.4 2.3 99 0.0 W 2 7 1 4 1025.5 1025.9 0.4
27/05:30am 2.6 1.0 2.5 99 0.0 CALM 0 0 0 0 1025.3 - 0.4
27/05:00am 1.9 0.2 1.8 99 0.0 CALM 0 0 0 0 1025.2 - 0.4
27/04:30am 3.2 1.7 3.1 99 0.0 CALM 0 0 0 0 1025.4 - 0.4
27/04:00am 3.4 0.8 3.3 99 0.0 W 6 9 3 5 1025.5 - 0.4
27/03:33am 3.3 1.8 3.2 99 0.0 CALM 0 6 0 3 1025.4 - 0.0
27/03:30am 3.4 2.0 3.3 99 0.0 CALM 0 4 0 2 1025.3 - 0.0
27/03:00am 5.1 2.3 5.0 99 0.0 W 9 9 5 5 1025.5 1025.9 0.0
27/02:30am 4.9 2.4 4.8 99 0.0 W 7 9 4 5 1025.4 - 0.0
27/02:00am 5.1 3.2 5.0 99 0.0 W 4 7 2 4 1025.6 - 0.0
27/01:35am 5.2 2.8 5.1 99 0.0 W 7 11 4 6 1025.8 - 0.0
27/01:30am 5.1 3.6 5.0 99 0.0 W 2 11 1 6 1025.7 - 0.0
27/01:00am 6.8 6.0 6.7 99 0.0 CALM 0 0 0 0 1025.9 - 0.0
27/12:30am 6.8 6.0 6.7 99 0.0 CALM 0 0 0 0 1026.1 - 0.0
27/12:00am 6.2 5.3 5.9 98 0.1 CALM 0 0 0 0 1025.9 1026.4 0.0
 
Date/Time
EST
Temp
°C
App
Temp
°C
Dew
Point
Rel
Hum
%
Delta-T
°C
Wind Press
QNH
hPa
Press
MSL
hPa
Rain
since 9 am
mm
Dir
 
Spd
km/h
Gust
km/h
Spd
kts
Gust
kts
26/11:30pm 7.3 6.5 6.7 96 0.3 CALM 0 0 0 0 1026.0 - 0.0
26/11:00pm 8.6 8.1 7.8 95 0.4 CALM 0 0 0 0 1026.1 - 0.0
26/10:30pm 9.0 7.7 7.8 92 0.6 W 4 6 2 3 1026.0 - 0.0
26/10:00pm 9.5 7.8 8.4 93 0.5 W 7 9 4 5 1025.9 - 0.0
26/09:30pm 9.3 7.7 8.2 93 0.5 W 6 7 3 4 1025.9 - 0.0
26/09:00pm 8.6 6.9 7.5 93 0.5 W 6 7 3 4 1025.7 1026.2 0.0

Other Formats:

Comma delimited format used in spreadsheet applications
http://www.bom.gov.au/fwo/IDV60801/IDV60801.94874.axf

JavaScript Object Notation format (JSON) in row-major order
http://www.bom.gov.au/fwo/IDV60801/IDV60801.94874.json